Terminal Aerodrome Forecast
Issued by NWS

Home | Current Version | Previous Version | Text Only | Print | Product List | Glossary On
Versions: 1 2 3 4 5 6 7 8 9 10 11 12 13 14 15 16 17 18 19 20 21 22 23 24 25 26 27 28 29 30 31 32 33 34 35 36 37 38 39 40 41 42 43 44 45 46 47 48 49 50
456
FTUS43 KMKX 131145 AAB
TAFUES
TAF AMD
KUES 131145Z 1312/1412 16009KT 3SM -SN BKN015 OVC030
     FM131300 16009KT P6SM -SN OVC035
     FM131600 17009KT P6SM -SN OVC070
     FM131900 24008KT 3SM -SN OVC015
     FM132000 30009KT 5SM -SN OVC015
     FM132200 34014KT 3SM -SN OVC020
     FM140300 36013KT P6SM VCSH OVC020
     FM140700 35011KT P6SM SCT050=

USA.gov is the U.S. government's official web portal to all federal, state and local government web resources and services.